Terminal Aerodrome Forecast
Issued by NWS Shreveport, LA

Home | Current Version | Previous Version | Text Only | Print | Product List | Glossary On
Versions: 1 2 3 4 5 6 7 8 9 10 11 12 13 14 15 16 17 18 19 20 21 22 23 24 25 26
000
FTUS44 KSHV 040500
TAFTYR
TAF
KTYR 040525Z 0406/0506 33005KT 1SM -DZ BR OVC002
      TEMPO 0406/0408 3SM BR OVC005
     FM041300 21010KT P6SM VCTS BKN010CB
     FM041800 35014G22KT P6SM -RA OVC008=

USA.gov is the U.S. government's official web portal to all federal, state and local government web resources and services.